ADDS METAR Data INFO
IDs: Format: Raw Decoded Include TAF

Data at: 0036 UTC 23 Oct 2017

KSQL 222355Z 30007KT 10SM SKC 23/10 A3027
KSQL 222247Z 32007KT 10SM SKC 23/10 A3029
KSQL 222150Z 33010KT 10SM SKC 22/09 A3030
KSQL 222048Z 32005KT 10SM SKC 20/10 A3033
KSQL 221947Z 30006KT 10SM SKC 19/11 A3035
KSQL 221855Z 31006KT 10SM SKC 18/12 A3036
KSQL 221747Z 36007KT 10SM FEW008 FEW040 17/13 A3037
KSQL 221650Z 00000KT 10SM FEW008 FEW040 16/13 A3038
KSQL 221547Z 00000KT 10SM SKC 13/11 A3037
KSQL 221447Z 00000KT 10SM SKC 11/10 A3035
KSQL 221355Z AUTO 00000KT 10SM CLR 11/09 A3033 RMK AO2
KSQL 221347Z 00000KT 10SM SKC 10/09 A3033
KSQL 221335Z AUTO 00000KT 10SM CLR 10/09 A3033 RMK AO2
KSQL 221315Z AUTO 00000KT 10SM CLR 11/09 A3033 RMK AO2
KSQL 221255Z AUTO 00000KT 10SM CLR 11/09 A3033 RMK AO2
KSQL 221235Z AUTO 00000KT 10SM CLR 11/10 A3033 RMK AO2
KSQL 221215Z AUTO 00000KT 10SM CLR 10/09 A3033 RMK AO2
KSQL 221155Z AUTO 00000KT 10SM CLR 11/10 A3033 RMK AO2
KSQL 221135Z AUTO 00000KT 10SM CLR 12/10 A3034 RMK AO2
KSQL 221115Z AUTO 00000KT 10SM CLR 11/10 A3034 RMK AO2
KSQL 221055Z AUTO 00000KT 10SM CLR 12/10 A3034 RMK AO2
KSQL 221035Z AUTO 00000KT 10SM CLR 12/10 A3034 RMK AO2
KSQL 221015Z AUTO 00000KT 10SM CLR 12/10 A3035 RMK AO2
KSQL 220955Z AUTO 00000KT 10SM CLR 12/10 A3035 RMK AO2
KSQL 220935Z AUTO 00000KT 10SM CLR 12/10 A3034 RMK AO2
KSQL 220915Z AUTO 00000KT 10SM CLR 13/10 A3035 RMK AO2
KSQL 220855Z AUTO 00000KT 10SM CLR 13/10 A3034 RMK AO2
KSQL 220835Z AUTO 00000KT 10SM CLR 12/10 A3034 RMK AO2
KSQL 220815Z AUTO 00000KT 10SM CLR 13/10 A3033 RMK AO2
KSQL 220755Z AUTO 00000KT 10SM CLR 13/10 A3032 RMK AO2
KSQL 220735Z AUTO 00000KT 10SM CLR 13/10 A3032 RMK AO2
KSQL 220715Z AUTO 00000KT 10SM CLR 13/11 A3032 RMK AO2
KSQL 220655Z AUTO 21003KT 10SM CLR 13/10 A3031 RMK AO2
KSQL 220635Z AUTO 00000KT 10SM CLR 14/11 A3031 RMK AO2
KSQL 220615Z AUTO 22003KT 10SM CLR 14/11 A3031 RMK AO2
KSQL 220555Z AUTO 18004KT 10SM CLR 14/11 A3031 RMK AO2
KSQL 220535Z AUTO 00000KT 10SM CLR 14/12 A3031 RMK AO2
KSQL 220515Z AUTO 00000KT 10SM CLR 15/12 A3031 RMK AO2
KSQL 220455Z AUTO 00000KT 10SM CLR 15/12 A3031 RMK AO2
KSQL 220435Z AUTO 32004KT 10SM CLR 15/12 A3031 RMK AO2
KSQL 220415Z AUTO 31008KT 10SM CLR 15/12 A3030 RMK AO2
KSQL 220350Z 29009KT 10SM SKC 15/12 A3030 RMK LAST
KSQL 220255Z 28006KT 10SM SKC 16/10 A3029
KSQL 220155Z 28007KT 10SM SKC 17/09 A3027
KSQL 220047Z 31010KT 10SM SKC 19/08 A3025
KSQL 212250Z 31007KT 10SM SKC 20/06 A3025
KSQL 212150Z 32005KT 10SM SKC 20/05 A3025
KSQL 212100Z 32006KT 10SM FEW200 19/05 A3025
KSQL 211947Z 03006KT 10SM FEW200 17/06 A3028
KSQL 211748Z 05004KT 10SM FEW200 15/08 A3028
KSQL 211647Z 00000KT 10SM FEW200 14/08 A3027
KSQL 211547Z 00000KT 10SM FEW200 12/08 A3026
KSQL 211447Z 00000KT 10SM FEW200 10/07 A3025
KSQL 211355Z AUTO 00000KT 10SM CLR 10/06 A3024 RMK AO2
KSQL 211347Z 00000KT 10SM FEW200 10/06 A3023
KSQL 211335Z AUTO 00000KT 10SM CLR 10/06 A3023 RMK AO2
KSQL 211315Z AUTO 00000KT 10SM CLR 09/06 A3023 RMK AO2
KSQL 211255Z AUTO 00000KT 10SM CLR 10/06 A3022 RMK AO2